Time;durP1;ratioP1;P1;durP2;ratioP2;P2;SDS_P1;SDS_P2;PMS_P1;PMS_P2;Temp;Humidity;BMP_temperature;BMP_pressure;BME280_temperature;BME280_humidity;BME280_pressure;Samples;Min_cycle;Max_cycle;Signal;HPM_P1;HPM_P2
2021/05/06 00:35:26;;;;;;;;;;;6.70;99.90;;;5.72;67.23;95356.31;10484414;28;1390;-89
2021/05/06 00:40:38;;;;;;;;;;;6.70;99.90;;;5.77;67.17;95346.50;10468683;28;2132;-88
2021/05/06 00:46:13;;;;;;;;;;;6.80;99.90;;;5.82;65.93;95351.91;10454152;28;2276;-88
2021/05/06 00:56:50;;;;;;;;;;;6.90;99.90;;;5.93;65.13;95353.63;10425829;28;1260;-86
2021/05/06 01:07:35;;;;;;;;;;;6.90;99.90;;;5.88;66.94;95340.22;10439527;28;3481;-87
2021/05/06 01:12:37;;;;;;;;;;;6.90;99.90;;;5.86;67.74;95339.69;10448199;28;1989;-87
2021/05/06 01:17:39;;;;;;;;;;;6.90;99.90;;;5.91;67.58;95338.91;10465081;28;2039;-88
2021/05/06 01:22:42;;;;;;;;;;;7.00;99.90;;;5.94;67.49;95341.09;10443828;28;2206;-88
2021/05/06 01:27:51;;;;;;;;;;;6.90;99.90;;;5.94;68.26;95341.09;10426792;28;2119;-88
2021/05/06 01:32:56;;;;;;;;;;;7.60;99.90;;;5.87;69.45;95333.28;10437001;28;2158;-87
2021/05/06 01:38:11;;;;;;;;;;;7.00;99.90;;;5.79;70.39;95325.75;10442989;28;1993;-87
2021/05/06 01:43:22;;;;;;;;;;;6.90;99.90;;;5.70;69.60;95335.25;10440661;28;2088;-87
2021/05/06 01:48:43;;;;;;;;;;;6.80;99.90;;;5.75;68.74;95321.97;10445033;28;2261;-88
2021/05/06 01:59:23;;;;;;;;;;;6.80;99.90;;;5.87;67.30;95317.28;10329305;28;2181;-87
2021/05/06 02:04:26;;;;;;;;;;;6.90;99.90;;;5.88;67.45;95299.41;10430322;28;1982;-86
2021/05/06 02:09:28;;;;;;;;;;;8.50;99.90;;;5.89;67.52;95296.47;10444479;28;2165;-88
2021/05/06 02:14:30;;;;;;;;;;;8.00;99.90;;;5.86;67.09;95298.88;10435371;28;1910;-87
2021/05/06 02:19:35;;;;;;;;;;;6.90;99.90;;;5.74;67.29;95291.03;10446371;28;2090;-86
2021/05/06 02:24:37;;;;;;;;;;;6.90;99.90;;;5.68;67.81;95281.38;10439633;28;1689;-87
2021/05/06 02:29:39;;;;;;;;;;;6.80;99.90;;;5.57;67.59;95285.81;10460946;28;2093;-87
2021/05/06 02:34:41;;;;;;;;;;;6.70;99.90;;;5.48;66.99;95276.69;10441580;28;2183;-87
2021/05/06 02:39:45;;;;;;;;;;;6.60;99.90;;;5.48;67.37;95274.03;10434774;28;2648;-87
2021/05/06 02:44:47;;;;;;;;;;;6.60;99.90;;;5.55;66.44;95277.28;10443310;28;2008;-87
2021/05/06 02:49:52;;;;;;;;;;;6.60;99.90;;;5.62;65.57;95266.41;10460187;28;2217;-87
2021/05/06 02:55:00;;;;;;;;;;;6.60;99.90;;;5.65;64.70;95272.00;10440719;28;2178;-88
2021/05/06 03:05:23;;;;;;;;;;;7.00;99.90;;;5.72;65.15;95271.00;10452214;28;1291;-88
2021/05/06 03:10:39;;;;;;;;;;;6.70;99.90;;;5.85;65.26;95251.88;10447093;28;1906;-82
2021/05/06 03:21:32;;;;;;;;;;;6.90;99.90;;;6.03;65.20;95258.72;10407519;28;1634;-86
2021/05/06 03:26:34;;;;;;;;;;;7.00;99.90;;;6.11;65.88;95252.91;10448046;28;1375;-86
2021/05/06 03:42:09;;;;;;;;;;;7.90;99.90;;;5.99;69.44;95293.13;10443647;28;1568;-86
2021/05/06 04:03:43;;;;;;;;;;;6.50;99.90;;;5.34;76.94;95278.97;10447832;28;1458;-88
2021/05/06 04:30:40;;;;;;;;;;;6.20;99.90;;;5.23;81.03;95300.44;10446635;28;2311;-87
2021/05/06 04:35:43;;;;;;;;;;;6.30;99.90;;;5.28;80.81;95290.63;10434537;28;2036;-85
2021/05/06 04:57:08;;;;;;;;;;;6.40;99.90;;;5.58;80.76;95281.28;10453413;28;2173;-85
2021/05/06 05:08:04;;;;;;;;;;;6.60;99.90;;;5.84;79.27;95292.97;10445947;28;2304;-86
2021/05/06 05:18:41;;;;;;;;;;;6.80;99.90;;;6.06;78.62;95282.22;10430925;28;2506;-89
2021/05/06 05:23:48;;;;;;;;;;;8.50;99.90;;;6.18;77.90;95282.84;10440391;28;2459;-87
2021/05/06 05:28:52;;;;;;;;;;;7.90;99.90;;;6.28;77.01;95288.22;10472540;28;2005;-88
2021/05/06 05:34:14;;;;;;;;;;;7.20;99.90;;;6.14;78.25;95273.72;10471162;28;2013;-87
2021/05/06 05:39:24;;;;;;;;;;;7.40;99.90;;;6.58;77.46;95279.56;10446773;28;2100;-88
2021/05/06 05:45:01;;;;;;;;;;;7.30;99.90;;;7.68;74.50;95298.03;10464398;28;2098;-87
2021/05/06 06:02:24;;;;;;;;;;;8.80;99.90;;;8.37;68.11;95268.03;10393374;28;1573;-85
2021/05/06 06:07:26;;;;;;;;;;;10.50;99.90;;;8.33;64.29;95268.81;10430366;28;1627;-84
2021/05/06 06:12:30;;;;;;;;;;;9.30;99.90;;;8.60;63.06;95260.47;10456906;28;1983;-85
2021/05/06 06:17:37;;;;;;;;;;;9.40;99.90;;;8.75;62.46;95262.28;10429939;28;2099;-84
2021/05/06 06:22:40;;;;;;;;;;;10.30;99.90;;;8.69;59.27;95264.19;10446214;28;1989;-83
2021/05/06 06:27:42;;;;;;;;;;;9.60;99.90;;;8.44;60.68;95266.94;10448936;28;2074;-82
2021/05/06 06:32:54;;;;;;;;;;;10.90;99.90;;;8.56;61.28;95254.84;10440585;28;1914;-85
2021/05/06 06:38:06;;;;;;;;;;;9.50;99.90;;;8.90;57.48;95251.50;10445452;28;1998;-82
2021/05/06 06:43:19;;;;;;;;;;;9.80;99.90;;;9.49;55.47;95239.91;10455955;28;1680;-81
2021/05/06 06:48:25;;;;;;;;;;;10.20;99.90;;;9.86;52.63;95233.16;10430136;28;1933;-81
2021/05/06 06:53:30;;;;;;;;;;;10.70;99.90;;;9.78;53.01;95228.41;10459129;28;1882;-82
2021/05/06 06:58:32;;;;;;;;;;;10.70;99.90;;;9.75;50.53;95214.47;10444597;28;2048;-81
2021/05/06 07:03:34;;;;;;;;;;;10.70;99.90;;;9.68;50.05;95210.50;10454580;28;2075;-84
2021/05/06 07:08:38;;;;;;;;;;;10.70;99.90;;;10.51;47.95;95212.13;10443312;28;2060;-82
2021/05/06 07:13:40;;;;;;;;;;;11.20;99.90;;;10.51;47.83;95198.69;10451773;28;1924;-82
2021/05/06 07:18:43;;;;;;;;;;;11.40;99.90;;;10.77;43.90;95177.69;10446950;28;2094;-80
2021/05/06 07:23:45;;;;;;;;;;;11.60;96.10;;;11.55;44.63;95176.28;10442882;28;2162;-83
2021/05/06 07:28:50;;;;;;;;;;;12.10;95.40;;;11.99;42.31;95170.44;10442529;28;1631;-82
2021/05/06 07:33:54;;;;;;;;;;;12.70;91.60;;;12.10;40.96;95149.50;10442761;28;1979;-82
2021/05/06 07:38:59;;;;;;;;;;;13.00;87.90;;;11.45;41.34;95146.81;10453406;28;1962;-80
2021/05/06 07:44:03;;;;;;;;;;;12.80;84.00;;;11.64;40.08;95147.56;10465203;28;2084;-79
2021/05/06 07:49:08;;;;;;;;;;;12.70;83.10;;;12.10;39.92;95144.13;10467580;28;1635;-82
2021/05/06 07:54:14;;;;;;;;;;;13.10;81.70;;;12.85;38.59;95127.50;10467210;28;1959;-88
2021/05/06 07:59:20;;;;;;;;;;;13.60;80.70;;;13.14;38.50;95129.00;10478971;28;1727;-84
2021/05/06 08:04:22;;;;;;;;;;;14.00;79.00;;;13.33;37.87;95126.16;10454211;28;1933;-82
2021/05/06 08:09:24;;;;;;;;;;;14.40;76.50;;;13.90;40.67;95115.56;10465731;28;1932;-83
2021/05/06 08:14:26;;;;;;;;;;;14.60;78.70;;;12.95;37.80;95121.84;10448033;28;2091;-85
2021/05/06 08:19:28;;;;;;;;;;;14.20;74.10;;;13.07;37.45;95115.94;10453071;28;1508;-84
2021/05/06 08:24:29;;;;;;;;;;;14.00;73.50;;;13.27;37.70;95112.00;10449406;28;1869;-82
2021/05/06 08:29:31;;;;;;;;;;;14.20;73.50;;;14.21;36.40;95108.22;10438787;28;2022;-84
2021/05/06 08:34:33;;;;;;;;;;;14.70;73.10;;;13.87;36.80;95100.78;10441150;28;2329;-83
2021/05/06 08:39:35;;;;;;;;;;;14.90;71.60;;;14.34;35.37;95084.91;10447493;28;2079;-82
2021/05/06 08:44:38;;;;;;;;;;;15.10;70.40;;;14.00;36.65;95090.97;10438542;28;2265;-83
2021/05/06 08:49:40;;;;;;;;;;;15.20;70.40;;;13.80;37.46;95084.19;10454857;28;1993;-82
2021/05/06 08:54:42;;;;;;;;;;;15.00;70.00;;;13.84;36.89;95077.06;10445434;28;2046;-83
2021/05/06 08:59:47;;;;;;;;;;;15.00;70.00;;;13.61;37.42;95073.59;10453390;28;2087;-82
2021/05/06 09:04:49;;;;;;;;;;;14.60;70.60;;;14.51;35.37;95066.03;10467296;28;1809;-80
2021/05/06 09:09:51;;;;;;;;;;;15.10;69.40;;;14.74;34.82;95057.78;10460496;28;2109;-85
2021/05/06 09:14:54;;;;;;;;;;;15.20;68.50;;;13.86;37.51;95077.53;10451275;28;2055;-83
2021/05/06 09:19:55;;;;;;;;;;;14.80;69.20;;;14.04;36.61;95081.13;10450693;28;1971;-83
2021/05/06 09:24:57;;;;;;;;;;;14.90;69.10;;;14.24;35.90;95077.06;10447209;28;1845;-83
2021/05/06 09:30:00;;;;;;;;;;;14.80;69.10;;;14.39;36.52;95068.53;10438666;28;1968;-83
2021/05/06 09:35:09;;;;;;;;;;;15.20;68.70;;;15.04;35.98;95062.25;10414672;23;1914;-85
2021/05/06 09:40:28;;;;;;;;;;;15.60;68.50;;;14.86;35.23;95063.38;10398071;28;2023;-86
2021/05/06 09:45:30;;;;;;;;;;;15.80;67.00;;;14.72;35.85;95052.69;10366943;28;1926;-84
2021/05/06 09:50:32;;;;;;;;;;;15.80;66.80;;;14.63;35.31;95053.78;10365101;28;1781;-87
2021/05/06 09:55:34;;;;;;;;;;;15.70;66.20;;;14.86;35.29;95055.25;10377799;28;1915;-86
2021/05/06 10:00:36;;;;;;;;;;;15.60;66.60;;;14.87;35.64;95054.94;10343624;28;1323;-84
2021/05/06 10:05:39;;;;;;;;;;;15.60;66.80;;;15.11;35.49;95050.97;10353685;28;2309;-85
2021/05/06 10:10:41;;;;;;;;;;;15.70;66.90;;;14.67;36.53;95046.66;10361582;28;2064;-85
2021/05/06 10:15:44;;;;;;;;;;;15.60;67.10;;;14.27;36.94;95055.63;10384942;28;1989;-88
2021/05/06 10:20:46;;;;;;;;;;;15.50;67.00;;;14.26;37.06;95055.94;10402088;28;2072;-85
2021/05/06 10:25:48;;;;;;;;;;;15.10;67.80;;;13.87;37.47;95054.84;10361995;28;2190;-84
2021/05/06 10:30:54;;;;;;;;;;;15.00;67.20;;;13.41;40.86;95052.53;10348781;28;2171;-83
2021/05/06 10:35:56;;;;;;;;;;;14.70;70.80;;;13.27;42.19;95068.00;10343982;28;2172;-80
2021/05/06 10:40:58;;;;;;;;;;;14.30;71.90;;;12.95;42.00;95067.91;10345224;28;2134;-86
2021/05/06 10:46:00;;;;;;;;;;;14.00;71.60;;;12.61;42.74;95071.13;10364605;28;2069;-84
2021/05/06 10:51:04;;;;;;;;;;;13.90;72.20;;;12.65;45.58;95079.38;10375931;28;2025;-87
2021/05/06 10:56:06;;;;;;;;;;;13.60;75.60;;;12.53;45.53;95084.50;10361560;28;1631;-84
2021/05/06 11:01:09;;;;;;;;;;;13.60;76.70;;;12.21;48.11;95096.19;10352290;28;2061;-84
2021/05/06 11:06:12;;;;;;;;;;;13.30;78.80;;;12.49;53.38;95091.59;10371650;28;2030;-85
2021/05/06 11:11:14;;;;;;;;;;;13.50;85.10;;;11.94;57.73;95097.00;10356573;28;2107;-86
2021/05/06 11:16:16;;;;;;;;;;;13.30;89.40;;;11.31;59.38;95099.13;10349763;28;2053;-82
2021/05/06 11:21:18;;;;;;;;;;;12.70;91.40;;;10.88;64.90;95106.56;10357819;28;1883;-85
2021/05/06 11:26:19;;;;;;;;;;;12.30;96.30;;;10.91;65.34;95100.56;10353818;28;1859;-83
2021/05/06 11:31:22;;;;;;;;;;;12.10;99.90;;;10.81;70.17;95098.84;10375881;28;2045;-84
2021/05/06 11:36:24;;;;;;;;;;;11.90;99.90;;;10.63;67.99;95096.97;10344633;28;1835;-84
2021/05/06 11:41:46;;;;;;;;;;;11.80;99.90;;;10.54;68.35;95093.31;10356962;28;2071;-86
2021/05/06 11:46:48;;;;;;;;;;;11.70;99.90;;;10.51;69.77;95099.28;10370068;28;1843;-85
2021/05/06 11:51:51;;;;;;;;;;;11.60;99.90;;;10.59;68.54;95085.19;10367659;28;2053;-85
2021/05/06 11:56:54;;;;;;;;;;;11.60;99.90;;;10.53;67.24;95079.06;10371151;28;1875;-85
2021/05/06 12:01:58;;;;;;;;;;;11.70;99.90;;;10.36;68.65;95072.59;10390855;28;2060;-86
2021/05/06 12:07:01;;;;;;;;;;;11.60;99.90;;;10.35;70.68;95065.63;10381416;28;2092;-86
2021/05/06 12:12:03;;;;;;;;;;;11.40;99.90;;;10.46;72.99;95067.09;10348748;28;2037;-86
2021/05/06 12:17:07;;;;;;;;;;;11.40;99.90;;;9.92;72.05;95054.84;10365785;28;1895;-85
2021/05/06 12:22:09;;;;;;;;;;;11.10;99.90;;;10.32;71.53;95037.47;10350930;28;1967;-84
2021/05/06 12:27:12;;;;;;;;;;;11.20;99.90;;;10.38;70.90;95024.75;10367716;28;1902;-83
2021/05/06 12:32:23;;;;;;;;;;;11.30;99.90;;;10.34;71.78;95015.66;10400375;28;1982;-83
2021/05/06 12:37:27;;;;;;;;;;;11.30;99.90;;;10.58;73.28;94994.91;10370307;28;1899;-83
2021/05/06 12:42:29;;;;;;;;;;;11.40;99.90;;;10.69;71.02;94990.19;10382244;28;1989;-85
2021/05/06 12:47:33;;;;;;;;;;;11.60;99.90;;;10.80;72.96;94978.94;10381978;28;2169;-86
2021/05/06 12:52:35;;;;;;;;;;;11.70;99.90;;;10.75;71.29;94972.84;10355498;28;2275;-84
2021/05/06 12:57:37;;;;;;;;;;;11.80;99.90;;;10.99;72.38;94953.91;10385184;28;2131;-83
2021/05/06 13:02:39;;;;;;;;;;;11.90;99.90;;;10.95;73.71;94952.91;10377703;28;1934;-83
2021/05/06 13:07:41;;;;;;;;;;;11.90;99.90;;;10.56;70.69;94946.03;10370381;28;2064;-82
2021/05/06 13:12:43;;;;;;;;;;;11.80;99.90;;;10.45;74.05;94939.22;10373911;28;1907;-82
2021/05/06 13:17:45;;;;;;;;;;;11.60;99.90;;;10.78;74.18;94919.31;10375569;28;2048;-83
2021/05/06 13:23:02;;;;;;;;;;;11.70;99.90;;;10.66;73.78;94912.81;10359894;28;1954;-83
2021/05/06 13:28:04;;;;;;;;;;;11.60;99.90;;;10.74;72.18;94904.06;10356466;28;2021;-84
2021/05/06 13:33:07;;;;;;;;;;;11.60;99.90;;;10.21;72.84;94898.97;10357609;28;1914;-84
2021/05/06 13:38:28;;;;;;;;;;;11.40;99.90;;;9.98;74.53;94897.97;10347651;28;2085;-83
2021/05/06 13:43:30;;;;;;;;;;;11.10;99.90;;;9.78;74.63;94882.16;10353023;28;2037;-85
2021/05/06 13:48:35;;;;;;;;;;;11.00;99.90;;;9.87;72.66;94875.06;10377903;28;1785;-84
2021/05/06 13:53:37;;;;;;;;;;;10.80;99.90;;;9.34;74.56;94861.81;10366703;28;2136;-82
2021/05/06 13:58:39;;;;;;;;;;;10.70;99.90;;;9.40;80.69;94858.78;10347182;28;2056;-84
2021/05/06 14:03:40;;;;;;;;;;;10.50;99.90;;;9.44;80.55;94834.88;10373129;28;2078;-84
2021/05/06 14:08:44;;;;;;;;;;;10.50;99.90;;;8.83;77.10;94806.13;10363375;28;1796;-84
2021/05/06 14:13:49;;;;;;;;;;;10.20;99.90;;;8.26;80.71;94778.31;10362197;28;2106;-85
2021/05/06 14:18:52;;;;;;;;;;;9.60;99.90;;;8.20;80.85;94792.81;10380855;28;1997;-85
2021/05/06 14:23:55;;;;;;;;;;;9.30;99.90;;;7.99;81.29;94790.34;10374869;28;2039;-88
2021/05/06 14:28:58;;;;;;;;;;;10.50;99.90;;;8.08;81.67;94799.38;10376958;28;2076;-85
2021/05/06 14:34:01;;;;;;;;;;;9.10;99.90;;;8.06;84.84;94817.56;10365346;28;1895;-87
2021/05/06 14:39:04;;;;;;;;;;;9.00;99.90;;;8.31;80.77;94826.47;10371524;28;2037;-86
2021/05/06 14:44:06;;;;;;;;;;;9.30;99.90;;;8.29;86.09;94828.63;10382429;28;2161;-84
2021/05/06 14:49:08;;;;;;;;;;;10.60;99.90;;;8.39;85.37;94823.19;10377991;28;1627;-89
2021/05/06 14:54:11;;;;;;;;;;;9.30;99.90;;;8.42;84.99;94803.91;10365209;28;1891;-87
2021/05/06 14:59:13;;;;;;;;;;;9.50;99.90;;;8.55;87.42;94799.75;10363827;28;2116;-85
2021/05/06 15:04:17;;;;;;;;;;;10.30;99.90;;;8.42;85.65;94795.06;10362511;28;2025;-80
2021/05/06 15:09:22;;;;;;;;;;;9.30;99.90;;;8.44;87.16;94791.00;10349755;28;1870;-82
2021/05/06 15:14:26;;;;;;;;;;;10.20;99.90;;;8.24;86.11;94792.00;10358394;28;1894;-81
2021/05/06 15:19:28;;;;;;;;;;;9.30;99.90;;;8.04;85.43;94782.28;10354918;28;2067;-84
2021/05/06 15:24:30;;;;;;;;;;;9.90;99.90;;;8.05;86.69;94783.84;10368980;28;1956;-83
2021/05/06 15:29:33;;;;;;;;;;;9.90;99.90;;;8.17;91.34;94791.53;10375462;28;1926;-83
2021/05/06 15:34:36;;;;;;;;;;;9.70;99.90;;;8.25;92.58;94776.72;10366413;28;2109;-84
2021/05/06 15:39:41;;;;;;;;;;;9.20;99.90;;;8.12;90.20;94780.84;10384685;28;2053;-86
2021/05/06 15:44:46;;;;;;;;;;;9.70;99.90;;;7.89;89.25;94773.56;10345882;28;2175;-86
2021/05/06 15:49:57;;;;;;;;;;;9.80;99.90;;;7.75;90.62;94770.72;10351606;28;2148;-85
2021/05/06 15:54:59;;;;;;;;;;;10.70;99.90;;;7.77;91.43;94763.25;10347396;28;2335;-82
2021/05/06 16:00:01;;;;;;;;;;;8.80;99.90;;;7.76;93.07;94757.09;10352693;28;2126;-85
2021/05/06 16:05:10;;;;;;;;;;;8.90;99.90;;;7.81;94.60;94766.94;10361632;28;2219;-83
2021/05/06 16:10:12;;;;;;;;;;;8.70;99.90;;;7.86;95.23;94759.69;10357686;28;2109;-82
2021/05/06 16:15:14;;;;;;;;;;;9.50;99.90;;;7.86;95.94;94748.19;10336966;28;2099;-84
2021/05/06 16:20:18;;;;;;;;;;;9.30;99.90;;;7.66;95.19;94737.66;10349075;28;2125;-86
2021/05/06 16:25:20;;;;;;;;;;;8.70;99.90;;;7.68;95.87;94735.50;10387471;28;1845;-87
2021/05/06 16:30:22;;;;;;;;;;;8.70;99.90;;;7.68;96.67;94714.09;10379393;28;1502;-86
2021/05/06 16:35:27;;;;;;;;;;;9.60;99.90;;;7.68;96.92;94716.75;10382543;28;1927;-87
2021/05/06 16:40:34;;;;;;;;;;;8.60;99.90;;;7.66;96.65;94711.69;10371509;28;2376;-88
2021/05/06 16:45:36;;;;;;;;;;;10.20;99.90;;;7.42;93.97;94711.63;10358419;28;1296;-87
2021/05/06 16:50:39;;;;;;;;;;;8.50;99.90;;;7.40;95.44;94716.47;10370161;28;1508;-86
2021/05/06 16:55:42;;;;;;;;;;;8.40;99.90;;;7.47;97.14;94713.47;10371631;28;1985;-86
2021/05/06 17:00:44;;;;;;;;;;;9.70;99.90;;;7.51;96.86;94715.31;10387641;28;1530;-87
2021/05/06 17:05:46;;;;;;;;;;;9.90;99.90;;;7.63;97.31;94716.81;10392734;28;2050;-88
2021/05/06 17:10:48;;;;;;;;;;;9.50;99.90;;;7.66;98.12;94705.56;10352304;28;1569;-85
2021/05/06 17:15:50;;;;;;;;;;;9.60;99.90;;;7.76;98.47;94711.63;10373080;28;1930;-87
2021/05/06 17:20:52;;;;;;;;;;;10.00;99.90;;;7.79;97.66;94720.94;10346922;28;2010;-86
2021/05/06 17:25:54;;;;;;;;;;;9.40;99.90;;;7.67;97.06;94720.53;10368072;28;1354;-87
2021/05/06 17:30:56;;;;;;;;;;;8.60;99.90;;;7.64;98.30;94726.44;10388841;28;1298;-87
2021/05/06 17:35:58;;;;;;;;;;;10.00;99.90;;;7.64;98.39;94729.13;10392747;28;1962;-88
2021/05/06 17:41:00;;;;;;;;;;;8.60;99.90;;;7.63;98.89;94740.88;10363177;28;1672;-87
2021/05/06 17:46:02;;;;;;;;;;;10.10;99.90;;;7.52;98.52;94738.28;10337861;28;1387;-84
2021/05/06 17:51:04;;;;;;;;;;;8.60;99.90;;;7.54;99.32;94746.03;10357129;28;1663;-86
2021/05/06 17:56:06;;;;;;;;;;;9.70;99.90;;;7.51;99.81;94752.75;10350904;28;1907;-82
2021/05/06 18:01:09;;;;;;;;;;;8.50;99.90;;;7.51;100.00;94746.59;10383215;28;1672;-85
2021/05/06 18:06:10;;;;;;;;;;;9.00;99.90;;;7.52;100.00;94722.25;10384687;28;1522;-86
2021/05/06 18:11:31;;;;;;;;;;;8.50;99.90;;;7.47;100.00;94714.25;10366197;28;1326;-85
2021/05/06 18:16:32;;;;;;;;;;;9.10;99.90;;;7.48;100.00;94726.56;10383899;28;1891;-84
2021/05/06 18:21:37;;;;;;;;;;;9.20;99.90;;;7.56;100.00;94728.63;10361343;28;1974;-84
2021/05/06 18:26:39;;;;;;;;;;;9.10;99.90;;;7.51;100.00;94743.94;10348189;28;1540;-85
2021/05/06 18:31:43;;;;;;;;;;;9.10;99.90;;;7.40;100.00;94732.50;10359134;28;1495;-86
2021/05/06 18:36:45;;;;;;;;;;;8.50;99.90;;;7.39;100.00;94706.84;10382403;28;1529;-85
2021/05/06 18:41:47;;;;;;;;;;;9.10;99.90;;;7.34;100.00;94701.53;10360706;28;1712;-86
2021/05/06 18:47:01;;;;;;;;;;;8.50;99.90;;;7.36;100.00;94685.19;10376005;28;1356;-85
2021/05/06 18:52:03;;;;;;;;;;;8.40;99.90;;;7.38;100.00;94691.06;10369966;28;1915;-86
2021/05/06 18:57:06;;;;;;;;;;;8.30;99.90;;;7.30;100.00;94716.53;10361793;28;1954;-85
2021/05/06 19:02:08;;;;;;;;;;;8.90;99.90;;;7.25;100.00;94701.34;10364974;28;1908;-88
2021/05/06 19:07:10;;;;;;;;;;;9.20;99.90;;;7.28;100.00;94683.94;10354639;28;1609;-86
2021/05/06 19:12:12;;;;;;;;;;;8.50;99.90;;;7.21;100.00;94670.88;10359939;28;2006;-86
2021/05/06 19:17:14;;;;;;;;;;;8.50;99.90;;;7.19;100.00;94657.00;10347327;28;1561;-84
2021/05/06 19:22:16;;;;;;;;;;;8.80;99.90;;;7.20;100.00;94653.25;10352199;28;1308;-87
2021/05/06 19:27:18;;;;;;;;;;;8.20;99.90;;;7.24;100.00;94653.47;10367174;28;1563;-88
2021/05/06 19:32:20;;;;;;;;;;;8.80;99.90;;;7.19;100.00;94656.19;10362149;28;1956;-87
2021/05/06 19:37:24;;;;;;;;;;;8.90;99.90;;;7.13;100.00;94650.13;10353323;28;1217;-88
2021/05/06 19:42:29;;;;;;;;;;;9.20;99.90;;;7.14;100.00;94662.41;10361737;28;1557;-89
2021/05/06 19:47:31;;;;;;;;;;;8.80;99.90;;;7.11;99.87;94659.47;10396893;28;1549;-88
2021/05/06 19:52:33;;;;;;;;;;;8.10;99.90;;;7.09;99.03;94680.34;10364464;28;1972;-87
2021/05/06 19:57:35;;;;;;;;;;;8.10;99.90;;;7.11;99.15;94678.16;10348593;28;1613;-89
2021/05/06 20:02:37;;;;;;;;;;;9.00;99.90;;;7.13;99.30;94676.03;10350578;28;1420;-86
2021/05/06 20:07:39;;;;;;;;;;;8.10;99.90;;;7.12;99.00;94669.06;10360502;28;1238;-87
2021/05/06 20:12:42;;;;;;;;;;;8.10;99.90;;;7.16;98.84;94686.16;10356600;28;1895;-89
2021/05/06 20:17:44;;;;;;;;;;;8.10;99.90;;;7.19;98.92;94678.41;10371363;28;1581;-89
2021/05/06 20:22:47;;;;;;;;;;;8.10;99.90;;;7.21;99.30;94692.28;10375321;28;1750;-87
2021/05/06 20:27:49;;;;;;;;;;;8.80;99.90;;;7.25;98.40;94701.34;10351468;28;1314;-89
2021/05/06 20:32:51;;;;;;;;;;;9.20;99.90;;;7.29;98.13;94715.72;10352073;28;1926;-86
2021/05/06 20:37:53;;;;;;;;;;;8.20;99.90;;;7.35;97.78;94726.38;10360081;28;1308;-88
2021/05/06 20:42:57;;;;;;;;;;;8.70;99.90;;;7.36;98.02;94733.31;10365576;28;1466;-87
2021/05/06 20:47:59;;;;;;;;;;;8.90;99.90;;;7.43;97.00;94756.00;10380897;28;1424;-87
2021/05/06 20:53:01;;;;;;;;;;;8.30;99.90;;;7.44;97.01;94778.97;10399858;28;1899;-87
2021/05/06 20:58:03;;;;;;;;;;;8.40;99.90;;;7.38;98.06;94769.41;10371564;28;2158;-86
2021/05/06 21:03:05;;;;;;;;;;;8.40;99.90;;;7.33;98.42;94772.13;10366052;28;2187;-86
2021/05/06 21:08:07;;;;;;;;;;;8.30;99.90;;;7.31;100.00;94747.53;10362886;28;2240;-85
2021/05/06 21:13:10;;;;;;;;;;;8.60;99.90;;;7.35;100.00;94745.91;10372572;28;2319;-88
2021/05/06 21:18:12;;;;;;;;;;;8.30;99.90;;;7.41;100.00;94744.78;10362124;28;2057;-85
2021/05/06 21:23:14;;;;;;;;;;;8.50;99.90;;;7.48;100.00;94758.63;10334860;28;2258;-87
2021/05/06 21:28:21;;;;;;;;;;;8.70;99.90;;;7.50;99.64;94761.81;10359644;28;2144;-88
2021/05/06 21:33:23;;;;;;;;;;;9.40;99.90;;;7.46;99.53;94760.81;10349589;28;2158;-87
2021/05/06 21:38:26;;;;;;;;;;;8.50;99.90;;;7.54;97.86;94762.06;10356876;28;2223;-87
2021/05/06 21:43:28;;;;;;;;;;;9.20;99.90;;;7.59;96.61;94770.88;10349830;28;2107;-88
2021/05/06 21:48:30;;;;;;;;;;;10.10;99.90;;;7.58;95.43;94796.00;10360643;28;2258;-87
2021/05/06 21:53:31;;;;;;;;;;;8.80;99.90;;;7.53;96.09;94776.53;10365065;28;2117;-88
2021/05/06 21:58:33;;;;;;;;;;;9.90;99.90;;;7.46;97.22;94787.53;10364428;28;2221;-87
2021/05/06 22:03:35;;;;;;;;;;;9.70;99.90;;;7.41;96.57;94784.09;10373478;28;2073;-86
2021/05/06 22:08:37;;;;;;;;;;;9.20;99.90;;;7.36;97.08;94784.91;10380396;28;1912;-87
2021/05/06 22:13:39;;;;;;;;;;;9.20;99.90;;;7.36;96.07;94782.25;10372926;28;2069;-86
2021/05/06 22:18:45;;;;;;;;;;;9.60;99.90;;;7.33;95.84;94777.47;10370064;28;2232;-87
2021/05/06 22:23:47;;;;;;;;;;;8.80;99.90;;;7.34;94.63;94779.06;10356883;28;2116;-87
2021/05/06 22:28:49;;;;;;;;;;;8.30;99.90;;;7.36;94.05;94778.78;10366457;28;1549;-85
2021/05/06 22:33:51;;;;;;;;;;;8.30;99.90;;;7.38;93.73;94758.72;10367513;28;2056;-88
2021/05/06 22:38:54;;;;;;;;;;;10.00;99.90;;;7.34;94.65;94768.38;10359409;28;1966;-86
2021/05/06 22:43:56;;;;;;;;;;;8.30;99.90;;;7.36;94.67;94763.53;10367629;28;1963;-85
2021/05/06 22:48:58;;;;;;;;;;;10.30;99.90;;;7.35;93.72;94779.84;10374160;28;1755;-85
2021/05/06 22:54:00;;;;;;;;;;;8.80;99.90;;;7.32;93.75;94787.38;10373150;28;2313;-86
2021/05/06 22:59:02;;;;;;;;;;;10.10;99.90;;;7.22;93.23;94770.56;10387581;28;2199;-86
2021/05/06 23:04:19;;;;;;;;;;;8.30;99.90;;;7.13;92.57;94761.56;10346090;28;2053;-86
2021/05/06 23:09:22;;;;;;;;;;;8.20;99.90;;;7.12;93.12;94755.38;10384372;28;2348;-87
2021/05/06 23:14:24;;;;;;;;;;;9.60;99.90;;;7.16;92.67;94777.03;10373304;28;2397;-86
2021/05/06 23:19:26;;;;;;;;;;;9.30;99.90;;;7.11;92.93;94790.41;10370280;28;2217;-87
2021/05/06 23:24:28;;;;;;;;;;;8.60;99.90;;;7.09;93.03;94787.22;10374118;28;2093;-87
2021/05/06 23:29:33;;;;;;;;;;;8.50;99.90;;;7.15;92.89;94797.63;10362275;28;2067;-87
2021/05/06 23:34:37;;;;;;;;;;;9.10;99.90;;;7.20;92.85;94800.25;10382049;28;2412;-88
2021/05/06 23:39:40;;;;;;;;;;;9.10;99.90;;;7.22;93.19;94803.44;10400035;28;2337;-87
2021/05/06 23:44:43;;;;;;;;;;;8.90;99.90;;;7.35;92.87;94807.38;10385858;28;2158;-85
2021/05/06 23:49:47;;;;;;;;;;;10.10;99.90;;;7.35;92.98;94807.38;10377513;28;2061;-88
2021/05/06 23:54:50;;;;;;;;;;;8.80;99.90;;;7.39;93.17;94824.47;10405611;28;2322;-87
2021/05/06 23:59:52;;;;;;;;;;;9.40;99.90;;;7.50;92.42;94807.28;10396820;28;2096;-86
